Latest Weather Observations for St George

IDQ60801

Issued at 9:52 am EST Sunday 17 February 2019 (issued every 10 minutes, with the page automatically refreshed every 10 minutes)

About weather observations | Map of weather stations | Latest weather observations for QLD | Other Formats
Station Details ID: 043109 Name: ST GEORGE AIRPORT Lat: -28.05 Lon: 148.59 Height: 198.5 m
Data from the previous 72 hours. | See also: Recent months at St George
Date/Time
EST
Temp
°C
App
Temp
°C
Dew
Point
°C
Rel
Hum
%
Delta-T
°C
Wind Press
QNH
hPa
Press
MSL
hPa
Rain since
9am
mm
Dir  Spd
km/h
Gust
km/h
Spd
kts
Gust
kts
17/09:30am 29.1 26.3 13.3 37 9.5 NNE 20 35 11 19 1014.8 1013.6 0.0
17/09:00am 27.1 23.4 12.7 41 8.5 N 24 41 13 22 1015.1 1013.9 0.0
17/08:30am 26.3 22.7 13.1 44 7.8 N 24 41 13 22 1015.0 1013.8 0.0
17/08:00am 25.6 22.2 13.8 48 7.0 N 24 35 13 19 1015.0 1013.8 0.0
17/07:30am 24.5 22.0 14.0 52 6.2 NNE 20 32 11 17 1015.0 1013.8 0.0
17/07:00am 23.6 21.3 14.0 55 5.7 NE 19 28 10 15 1014.7 1013.5 0.0
17/06:30am 23.2 22.0 13.9 56 5.5 ENE 13 22 7 12 1014.4 1013.2 0.0
17/06:00am 22.9 21.7 13.9 57 5.3 NE 13 20 7 11 1013.8 1012.5 0.0
17/05:30am 23.2 22.0 13.9 56 5.5 NE 13 17 7 9 1013.5 1012.2 0.0
17/05:00am 23.6 21.6 14.0 55 5.7 NE 17 24 9 13 1013.1 1011.8 0.0
17/04:30am 23.7 21.9 13.3 52 6.1 NE 15 20 8 11 1012.6 1011.3 0.0
17/04:00am 24.0 21.8 12.0 47 6.9 NE 15 22 8 12 1012.4 1011.1 0.0
17/03:30am 24.3 22.1 10.9 43 7.5 NE 13 20 7 11 1012.4 1011.1 0.0
17/03:00am 24.6 21.9 9.0 37 8.5 NE 13 20 7 11 1012.3 1011.0 0.0
17/02:30am 25.0 22.1 8.1 34 9.1 NE 13 20 7 11 1012.3 1011.0 0.0
17/02:00am 25.2 22.0 6.9 31 9.7 NE 13 19 7 10 1012.4 1011.1 0.0
17/01:30am 25.2 22.1 5.4 28 10.2 NE 11 15 6 8 1012.4 1011.1 0.0
17/01:00am 25.9 23.0 4.9 26 10.7 NE 9 15 5 8 1012.5 1011.2 0.0
17/12:30am 26.1 23.3 5.1 26 10.8 ESE 9 11 5 6 1012.6 1011.3 0.0
17/12:00am 26.2 23.4 5.2 26 10.8 E 9 13 5 7 1012.8 1011.5 0.0
 
Date/Time
EST
Temp
°C
App
Temp
°C
Dew
Point
°C
Rel
Hum
%
Delta-T
°C
Wind Press
QNH
hPa
Press
MSL
hPa
Rain since
9am
mm
Dir  Spd
km/h
Gust
km/h
Spd
kts
Gust
kts
16/11:30pm 26.5 23.6 4.9 25 11.1 E 9 13 5 7 1013.1 1011.8 0.0
16/11:00pm 26.5 23.6 4.9 25 11.1 ENE 9 11 5 6 1013.4 1012.1 0.0
16/10:30pm 27.2 24.5 5.5 25 11.3 E 9 13 5 7 1013.4 1012.1 0.0
16/10:00pm 26.6 24.3 5.0 25 11.1 E 6 9 3 5 1013.5 1012.2 0.0
16/09:30pm 27.7 24.8 4.7 23 11.8 ESE 9 13 5 7 1013.5 1012.2 0.0
16/09:00pm 28.5 25.8 5.4 23 12.1 ESE 9 11 5 6 1013.3 1012.0 0.0
16/08:30pm 28.5 26.1 5.4 23 12.1 ESE 7 11 4 6 1013.0 1011.7 0.0
16/08:00pm 29.0 26.2 5.1 22 12.5 ESE 9 11 5 6 1012.8 1011.5 0.0
16/07:30pm 30.6 28.2 5.1 20 13.5 ESE 7 9 4 5 1012.6 1011.3 0.0
16/07:00pm 32.1 29.2 4.8 18 14.5 ESE 9 11 5 6 1012.4 1011.1 0.0
16/06:30pm 33.1 29.5 4.8 17 15.1 ESE 13 17 7 9 1012.0 1010.7 0.0
16/06:00pm 33.7 30.0 4.4 16 15.6 ESE 13 19 7 10 1011.9 1010.6 0.0
16/05:30pm 34.0 30.3 4.6 16 15.7 SE 13 19 7 10 1011.9 1010.6 0.0
16/05:00pm 34.2 30.4 5.7 17 15.5 SSE 15 22 8 12 1012.0 1010.7 0.0
16/04:30pm 34.4 31.0 5.8 17 15.6 SSE 13 24 7 13 1012.2 1010.9 0.0
16/04:00pm 34.0 29.2 5.5 17 15.4 SE 20 33 11 18 1012.5 1011.2 0.0
16/03:30pm 34.9 29.9 4.4 15 16.3 SSE 20 30 11 16 1012.7 1011.4 0.0
16/03:00pm 34.8 32.0 7.0 18 15.5 ESE 11 30 6 16 1012.9 1011.6 0.0
16/02:30pm 34.7 31.3 7.7 19 15.2 ESE 15 24 8 13 1013.3 1012.0 0.0
16/02:00pm 34.0 30.8 8.6 21 14.4 NE 15 24 8 13 1013.9 1012.6 0.0
16/01:30pm 33.4 30.9 8.1 21 14.2 NNE 11 20 6 11 1014.5 1013.3 0.0
16/01:00pm 33.3 31.1 9.4 23 13.7 NNE 11 19 6 10 1015.1 1013.9 0.0
16/12:30pm 32.2 29.9 9.1 24 13.1 NNE 11 24 6 13 1015.7 1014.5 0.0
16/12:00pm 31.6 28.4 9.8 26 12.5 ENE 17 26 9 14 1016.3 1015.0 0.0
16/11:30am 31.3 28.7 10.6 28 12.0 E 15 26 8 14 1017.0 1015.7 0.0
16/11:00am 30.3 27.1 9.8 28 11.6 NE 17 33 9 18 1017.7 1016.4 0.0
16/10:30am 28.8 25.1 9.5 30 10.9 NE 19 26 10 14 1018.2 1016.9 0.0
16/10:00am 28.1 24.5 9.9 32 10.2 ENE 19 28 10 15 1018.5 1017.3 0.0
16/09:30am 27.7 24.1 10.4 34 9.8 NE 20 30 11 16 1018.6 1017.4 0.0
16/09:00am 26.3 22.3 10.5 37 8.9 NE 22 32 12 17 1018.8 1017.6 0.0
16/08:30am 25.1 21.0 10.2 39 8.3 NNE 22 32 12 17 1018.6 1017.4 0.0
16/08:00am 24.1 19.7 10.4 42 7.6 NE 24 32 13 17 1018.6 1017.4 0.0
16/07:30am 23.5 19.9 10.6 44 7.2 NE 20 30 11 16 1018.4 1017.1 0.0
16/07:00am 22.7 19.2 10.2 45 6.9 NE 19 28 10 15 1018.0 1016.7 0.0
16/06:30am 22.2 19.1 10.4 47 6.5 ENE 17 26 9 14 1017.6 1016.3 0.0
16/06:00am 21.9 18.5 10.4 48 6.3 ENE 19 28 10 15 1017.3 1016.0 0.0
16/05:30am 22.1 18.4 10.3 47 6.5 ENE 20 26 11 14 1017.0 1015.7 0.0
16/05:00am 22.6 19.0 10.7 47 6.6 ENE 20 26 11 14 1016.8 1015.5 0.0
16/04:30am 22.9 19.3 10.7 46 6.8 ENE 20 30 11 16 1016.5 1015.2 0.0
16/04:00am 23.6 19.8 11.3 46 6.9 ENE 22 30 12 16 1016.0 1014.8 0.0
16/03:30am 24.4 20.8 13.0 49 6.7 ENE 24 33 13 18 1015.7 1014.5 0.0
16/03:00am 25.1 21.8 13.9 49 6.7 ENE 24 39 13 21 1015.3 1014.1 0.0
16/02:30am 25.6 21.6 14.1 49 6.9 ENE 28 41 15 22 1015.4 1014.2 0.0
16/02:16am 25.9 21.6 14.4 49 6.9 ENE 30 50 16 27 1015.2 1014.0 0.0
16/02:00am 26.4 21.7 14.2 47 7.3 ENE 32 46 17 25 1015.1 1013.9 0.0
16/01:30am 27.1 23.3 11.2 37 9.1 ENE 22 33 12 18 1015.1 1013.9 0.0
16/01:00am 27.6 23.6 9.0 31 10.3 ENE 20 28 11 15 1015.2 1014.0 0.0
16/12:30am 28.2 23.9 8.0 28 11.0 ENE 20 32 11 17 1015.2 1014.0 0.0
16/12:00am 28.5 23.8 7.7 27 11.3 E 22 32 12 17 1015.3 1014.1 0.0
 
Date/Time
EST
Temp
°C
App
Temp
°C
Dew
Point
°C
Rel
Hum
%
Delta-T
°C
Wind Press
QNH
hPa
Press
MSL
hPa
Rain since
9am
mm
Dir  Spd
km/h
Gust
km/h
Spd
kts
Gust
kts
15/11:30pm 27.1 25.1 8.5 31 10.2 ESE 9 9 5 5 1015.0 1013.8 0.0
15/11:00pm 27.9 25.9 8.7 30 10.6 ESE 9 13 5 7 1015.1 1013.9 0.0
15/10:30pm 28.5 26.0 8.2 28 11.2 ESE 11 15 6 8 1015.1 1013.9 0.0
15/10:00pm 29.3 26.8 8.4 27 11.6 ESE 11 15 6 8 1015.0 1013.8 0.0
15/09:30pm 29.6 27.2 8.6 27 11.7 E 11 13 6 7 1015.0 1013.8 0.0
15/09:00pm 30.6 27.7 8.3 25 12.4 ESE 13 17 7 9 1014.9 1013.7 0.0
15/08:30pm 30.8 28.1 9.1 26 12.2 ESE 13 17 7 9 1014.7 1013.5 0.0
15/08:00pm 31.4 28.3 9.0 25 12.6 ESE 15 19 8 10 1014.4 1013.2 0.0
15/07:30pm 32.2 29.5 9.1 24 13.1 ESE 13 19 7 10 1014.0 1012.8 0.0
15/07:00pm 32.8 29.9 9.6 24 13.3 ESE 15 20 8 11 1013.7 1012.4 0.0
15/06:30pm 34.0 31.2 8.6 21 14.4 ESE 13 22 7 12 1013.5 1012.2 0.0
15/06:00pm 34.9 31.4 7.1 18 15.5 SE 15 20 8 11 1013.2 1011.9 0.0
15/05:30pm 35.2 31.5 6.5 17 15.9 SSE 15 24 8 13 1013.2 1011.9 0.0
15/05:00pm 35.1 31.4 8.0 19 15.3 SE 17 24 9 13 1013.2 1011.9 0.0
15/04:30pm 35.5 31.7 7.6 18 15.7 SE 17 28 9 15 1013.2 1011.9 0.0
15/04:00pm 35.3 32.0 9.7 21 14.9 SE 17 26 9 14 1013.2 1011.9 0.0
15/03:30pm 35.5 33.4 11.2 23 14.5 SE 13 24 7 13 1013.4 1012.1 0.0
15/03:00pm 35.0 33.0 11.4 24 14.0 E 13 30 7 16 1013.7 1012.4 0.0
15/02:30pm 34.3 31.7 12.0 25 13.4 E 17 28 9 15 1014.2 1013.0 0.0
15/02:00pm 34.5 32.7 13.3 27 12.9 E 15 26 8 14 1014.7 1013.5 0.0
15/01:30pm 34.4 33.4 13.3 28 12.9 E 11 28 6 15 1015.3 1014.1 0.0
15/01:00pm 33.2 30.4 13.3 30 12.1 NNE 20 30 11 16 1015.7 1014.5 0.0
15/12:30pm 32.8 31.0 13.4 30 11.8 ENE 15 20 8 11 1016.3 1015.0 0.0
15/12:00pm 31.6 29.3 12.9 32 11.2 ENE 17 30 9 16 1017.0 1015.7 0.0
15/11:30am 30.8 29.3 13.1 34 10.6 NE 13 20 7 11 1017.5 1016.2 0.0
15/11:00am 29.8 27.7 13.5 36 9.8 ENE 17 24 9 13 1018.0 1016.7 0.0
15/10:30am 29.2 26.8 13.8 39 9.3 ENE 19 30 10 16 1018.4 1017.1 0.0
15/10:00am 29.1 26.7 14.5 41 8.9 ENE 20 30 11 16 1018.6 1017.4 0.0
15/09:30am 27.9 25.1 14.2 43 8.3 E 22 32 12 17 1018.6 1017.4 0.0
15/09:00am 27.4 24.8 13.7 43 8.2 NE 20 32 11 17 1018.4 1017.1 0.0
15/08:30am 26.1 23.1 13.6 46 7.4 ENE 22 39 12 21 1018.3 1017.0 0.0
15/08:00am 25.5 22.0 13.4 47 7.1 E 24 33 13 18 1018.3 1017.0 0.0
15/07:30am 25.0 21.2 13.5 48 6.8 ENE 26 37 14 20 1018.1 1016.8 0.0
15/07:00am 24.2 21.1 13.4 51 6.3 ENE 22 32 12 17 1017.8 1016.5 0.0
15/06:30am 23.6 20.6 13.8 54 5.8 ENE 22 35 12 19 1017.4 1016.1 0.0
15/06:00am 23.2 20.8 13.9 56 5.5 ENE 19 26 10 14 1016.9 1015.6 0.0
15/05:30am 23.2 20.8 13.7 55 5.6 ENE 19 26 10 14 1016.4 1015.1 0.0
15/05:00am 23.5 20.9 13.9 55 5.7 ENE 20 32 11 17 1015.7 1014.5 0.0
15/04:30am 23.8 21.2 13.9 54 5.9 ENE 20 30 11 16 1015.4 1014.2 0.0
15/04:00am 24.0 20.6 13.8 53 6.0 ENE 24 35 13 19 1015.0 1013.8 0.0
15/03:30am 24.4 21.9 14.2 53 6.1 ENE 20 32 11 17 1014.8 1013.6 0.0
15/03:00am 24.8 22.5 14.6 53 6.1 ENE 20 32 11 17 1014.8 1013.6 0.0
15/02:30am 25.1 22.8 14.6 52 6.3 ENE 20 30 11 16 1014.5 1013.3 0.0
15/02:00am 25.5 22.8 14.6 51 6.6 ENE 22 33 12 18 1014.4 1013.2 0.0
15/01:30am 25.2 23.6 14.0 49 6.7 ENE 15 30 8 16 1014.4 1013.2 0.0
15/01:00am 24.8 22.0 9.9 39 8.3 ENE 15 20 8 11 1014.4 1013.2 0.0
15/12:30am 24.0 20.6 5.8 31 9.3 ENE 13 19 7 10 1014.5 1013.3 0.0
15/12:00am 20.1 16.4 -4.2 19 10.0 ESE 6 7 3 4 1014.7 1013.5 0.0
 
Date/Time
EST
Temp
°C
App
Temp
°C
Dew
Point
°C
Rel
Hum
%
Delta-T
°C
Wind Press
QNH
hPa
Press
MSL
hPa
Rain since
9am
mm
Dir  Spd
km/h
Gust
km/h
Spd
kts
Gust
kts
14/11:30pm 20.3 16.5 -4.0 19 10.0 E 7 15 4 8 1014.7 1013.5 0.0
14/11:00pm 21.0 18.5 -4.2 18 10.4 CALM 0 0 0 0 1014.5 1013.3 0.0
14/10:30pm 21.5 19.0 -3.8 18 10.6 CALM 0 0 0 0 1014.3 1013.1 0.0
14/10:00pm 21.6 19.2 -3.0 19 10.5 CALM 0 0 0 0 1014.0 1012.8 0.0
14/09:30pm 21.5 18.7 -3.1 19 10.5 SSW 2 6 1 3 1013.9 1012.6 0.0
14/09:00pm 23.0 20.6 -3.3 17 11.3 CALM 0 0 0 0 1013.7 1012.4 0.0
14/08:30pm 23.5 20.1 -2.2 18 11.3 WNW 6 9 3 5 1013.4 1012.1 0.0
14/08:00pm 24.5 21.9 -4.7 14 12.4 CALM 0 0 0 0 1013.1 1011.8 0.0
14/07:30pm 27.5 24.7 -6.8 10 14.4 CALM 0 0 0 0 1012.8 1011.5 0.0
14/07:00pm 29.5 25.6 -6.7 9 15.5 SE 6 9 3 5 1012.5 1011.2 0.0
14/06:30pm 31.5 27.4 -6.7 8 16.6 SSE 7 13 4 7 1012.3 1011.0 0.0
14/06:00pm 33.4 30.6 -7.0 7 17.7 CALM 0 0 0 0 1012.1 1010.8 0.0
14/05:30pm 32.9 28.7 -7.4 7 17.5 WSW 7 13 4 7 1011.8 1010.5 0.0
14/05:00pm 32.8 27.9 -7.5 7 17.5 SW 11 17 6 9 1011.7 1010.4 0.0
14/04:30pm 33.0 28.1 -7.3 7 17.5 W 11 22 6 12 1011.6 1010.3 0.0
14/04:00pm 33.4 28.5 -7.0 7 17.8 SSW 11 17 6 9 1011.6 1010.3 0.0
14/03:30pm 32.3 27.3 -7.8 7 17.2 WSW 11 19 6 10 1011.7 1010.4 0.0
14/03:00pm 32.5 27.8 -9.7 6 17.6 NW 9 17 5 9 1011.9 1010.6 0.0
14/02:30pm 31.8 26.0 -8.2 7 17.0 SW 15 26 8 14 1012.0 1010.7 0.0
14/02:00pm 31.5 26.6 -6.7 8 16.6 NW 11 19 6 10 1012.3 1011.0 0.0
14/01:30pm 30.3 25.0 -7.6 8 16.0 WSW 13 22 7 12 1012.6 1011.3 0.0
14/01:00pm 30.4 25.8 -7.5 8 16.1 NW 9 15 5 8 1013.0 1011.7 0.0
14/12:30pm 29.5 25.0 -6.7 9 15.5 SSW 9 15 5 8 1013.3 1012.0 0.0
14/12:00pm 29.0 25.0 -5.7 10 15.0 ENE 7 13 4 7 1013.7 1012.4 0.0
14/11:30am 28.1 23.7 -6.3 10 14.6 NW 9 20 5 11 1014.1 1012.9 0.0
14/11:00am 27.0 22.6 -5.9 11 13.9 WNW 9 17 5 9 1014.3 1013.1 0.0
14/10:30am 25.9 21.2 -4.6 13 13.1 WNW 11 17 6 9 1014.4 1013.2 0.0
14/10:00am 24.7 20.5 -3.6 15 12.3 NW 9 17 5 9 1014.5 1013.3 0.0

Other Formats:

Comma delimited format used in spreadsheet applications
http://www.bom.gov.au/fwo/IDQ60801/IDQ60801.94517.axf

JavaScript Object Notation format (JSON) in row-major order
http://www.bom.gov.au/fwo/IDQ60801/IDQ60801.94517.json